sensor_id;sensor_type;location;lat;lon;timestamp;pressure;altitude;pressure_sealevel;temperature;humidity
48846;BME280;34665;51.886;5.436;2023-04-27T00:01:14;101926.75;;;12.86;72.61
48846;BME280;34665;51.886;5.436;2023-04-27T00:03:40;101933.59;;;12.73;73.03
48846;BME280;34665;51.886;5.436;2023-04-27T00:06:06;101941.94;;;12.79;72.67
48846;BME280;34665;51.886;5.436;2023-04-27T00:08:32;101943.78;;;12.78;72.83
48846;BME280;34665;51.886;5.436;2023-04-27T00:10:58;101933.72;;;12.80;72.80
48846;BME280;34665;51.886;5.436;2023-04-27T00:13:23;101942.03;;;12.85;72.37
48846;BME280;34665;51.886;5.436;2023-04-27T00:15:49;101934.53;;;12.81;71.77
48846;BME280;34665;51.886;5.436;2023-04-27T00:18:14;101937.69;;;12.69;72.42
48846;BME280;34665;51.886;5.436;2023-04-27T00:20:40;101937.38;;;12.79;72.07
48846;BME280;34665;51.886;5.436;2023-04-27T00:23:05;101937.81;;;12.53;73.15
48846;BME280;34665;51.886;5.436;2023-04-27T00:25:31;101946.53;;;12.55;73.16
48846;BME280;34665;51.886;5.436;2023-04-27T00:27:57;101937.69;;;12.69;72.97
48846;BME280;34665;51.886;5.436;2023-04-27T00:30:23;101940.53;;;12.68;72.60
48846;BME280;34665;51.886;5.436;2023-04-27T00:32:48;101943.03;;;12.69;72.47
48846;BME280;34665;51.886;5.436;2023-04-27T00:35:14;101939.34;;;12.70;72.56
48846;BME280;34665;51.886;5.436;2023-04-27T00:37:40;101946.63;;;12.61;73.14
48846;BME280;34665;51.886;5.436;2023-04-27T00:40:06;101943.94;;;12.61;72.92
48846;BME280;34665;51.886;5.436;2023-04-27T00:42:32;101938.28;;;12.56;72.92
48846;BME280;34665;51.886;5.436;2023-04-27T00:44:58;101941.63;;;12.58;73.10
48846;BME280;34665;51.886;5.436;2023-04-27T00:47:23;101942.81;;;12.56;73.57
48846;BME280;34665;51.886;5.436;2023-04-27T00:49:49;101940.75;;;12.43;73.41
48846;BME280;34665;51.886;5.436;2023-04-27T00:52:14;101940.28;;;12.39;73.99
48846;BME280;34665;51.886;5.436;2023-04-27T00:54:40;101939.09;;;12.18;74.70
48846;BME280;34665;51.886;5.436;2023-04-27T00:57:07;101937.25;;;12.19;74.84
48846;BME280;34665;51.886;5.436;2023-04-27T00:59:33;101934.09;;;12.15;74.73
48846;BME280;34665;51.886;5.436;2023-04-27T01:01:59;101935.81;;;12.08;74.98
48846;BME280;34665;51.886;5.436;2023-04-27T01:04:25;101928.06;;;12.13;74.91
48846;BME280;34665;51.886;5.436;2023-04-27T01:06:51;101929.34;;;12.26;74.48
48846;BME280;34665;51.886;5.436;2023-04-27T01:09:16;101925.63;;;12.27;74.58
48846;BME280;34665;51.886;5.436;2023-04-27T01:11:44;101924.34;;;12.23;74.35
48846;BME280;34665;51.886;5.436;2023-04-27T01:14:09;101922.63;;;12.22;74.53
48846;BME280;34665;51.886;5.436;2023-04-27T01:16:35;101919.38;;;12.11;75.13
48846;BME280;34665;51.886;5.436;2023-04-27T01:19:01;101919.75;;;12.08;75.24
48846;BME280;34665;51.886;5.436;2023-04-27T01:21:27;101918.66;;;12.17;75.03
48846;BME280;34665;51.886;5.436;2023-04-27T01:23:52;101913.72;;;11.98;76.05
48846;BME280;34665;51.886;5.436;2023-04-27T01:26:18;101917.88;;;12.09;76.32
48846;BME280;34665;51.886;5.436;2023-04-27T01:28:43;101926.63;;;12.02;76.56
48846;BME280;34665;51.886;5.436;2023-04-27T01:31:09;101929.16;;;11.96;77.90
48846;BME280;34665;51.886;5.436;2023-04-27T01:33:35;101922.13;;;11.95;78.17
48846;BME280;34665;51.886;5.436;2023-04-27T01:36:00;101925.81;;;12.02;78.32
48846;BME280;34665;51.886;5.436;2023-04-27T01:38:26;101926.13;;;11.99;78.50
48846;BME280;34665;51.886;5.436;2023-04-27T01:40:52;101924.66;;;11.96;79.21
48846;BME280;34665;51.886;5.436;2023-04-27T01:43:19;101923.22;;;11.85;79.78
48846;BME280;34665;51.886;5.436;2023-04-27T01:45:45;101918.44;;;11.96;79.28
48846;BME280;34665;51.886;5.436;2023-04-27T01:48:10;101917.78;;;11.94;79.08
48846;BME280;34665;51.886;5.436;2023-04-27T01:50:36;101906.84;;;12.03;79.17
48846;BME280;34665;51.886;5.436;2023-04-27T01:53:01;101906.47;;;11.83;79.78
48846;BME280;34665;51.886;5.436;2023-04-27T01:55:27;101903.50;;;11.78;81.12
48846;BME280;34665;51.886;5.436;2023-04-27T01:57:53;101907.78;;;11.87;80.26
48846;BME280;34665;51.886;5.436;2023-04-27T02:00:18;101901.28;;;11.82;80.53
48846;BME280;34665;51.886;5.436;2023-04-27T02:02:46;101902.94;;;11.83;81.75
48846;BME280;34665;51.886;5.436;2023-04-27T02:05:12;101905.75;;;11.89;81.90
48846;BME280;34665;51.886;5.436;2023-04-27T02:07:37;101902.72;;;11.93;81.70
48846;BME280;34665;51.886;5.436;2023-04-27T02:10:04;101900.09;;;11.84;82.65
48846;BME280;34665;51.886;5.436;2023-04-27T02:12:30;101896.91;;;11.89;82.71
48846;BME280;34665;51.886;5.436;2023-04-27T02:14:58;101899.38;;;11.90;82.08
48846;BME280;34665;51.886;5.436;2023-04-27T02:17:24;101896.78;;;11.74;84.88
48846;BME280;34665;51.886;5.436;2023-04-27T02:19:49;101908.63;;;11.88;84.16
48846;BME280;34665;51.886;5.436;2023-04-27T02:22:15;101902.59;;;11.86;85.64
48846;BME280;34665;51.886;5.436;2023-04-27T02:24:40;101899.38;;;11.90;86.76
48846;BME280;34665;51.886;5.436;2023-04-27T02:27:05;101904.09;;;11.88;86.93
48846;BME280;34665;51.886;5.436;2023-04-27T02:29:31;101902.59;;;11.86;87.78
48846;BME280;34665;51.886;5.436;2023-04-27T02:31:57;101897.50;;;11.68;89.53
48846;BME280;34665;51.886;5.436;2023-04-27T02:34:22;101894.09;;;11.82;88.88
48846;BME280;34665;51.886;5.436;2023-04-27T02:36:48;101897.41;;;11.84;88.86
48846;BME280;34665;51.886;5.436;2023-04-27T02:39:13;101892.78;;;11.78;88.55
48846;BME280;34665;51.886;5.436;2023-04-27T02:41:38;101888.88;;;11.81;88.26
48846;BME280;34665;51.886;5.436;2023-04-27T02:44:03;101892.41;;;11.81;87.51
48846;BME280;34665;51.886;5.436;2023-04-27T02:46:29;101885.22;;;11.50;87.82
48846;BME280;34665;51.886;5.436;2023-04-27T02:48:55;101887.00;;;11.35;89.21
48846;BME280;34665;51.886;5.436;2023-04-27T02:51:21;101888.78;;;11.42;88.09
48846;BME280;34665;51.886;5.436;2023-04-27T02:53:47;101887.09;;;11.41;88.86
48846;BME280;34665;51.886;5.436;2023-04-27T02:56:13;101883.44;;;11.42;88.96
48846;BME280;34665;51.886;5.436;2023-04-27T02:58:38;101889.63;;;11.43;88.55
48846;BME280;34665;51.886;5.436;2023-04-27T03:01:05;101899.38;;;11.36;88.78
48846;BME280;34665;51.886;5.436;2023-04-27T03:03:31;101890.69;;;11.33;89.05
48846;BME280;34665;51.886;5.436;2023-04-27T03:05:56;101894.63;;;11.46;88.08
48846;BME280;34665;51.886;5.436;2023-04-27T03:08:21;101897.50;;;11.44;88.31
48846;BME280;34665;51.886;5.436;2023-04-27T03:10:47;101891.59;;;11.49;88.05
48846;BME280;34665;51.886;5.436;2023-04-27T03:13:13;101890.63;;;11.42;88.28
48846;BME280;34665;51.886;5.436;2023-04-27T03:15:39;101889.91;;;11.48;88.08
48846;BME280;34665;51.886;5.436;2023-04-27T03:18:04;101895.25;;;11.56;87.23
48846;BME280;34665;51.886;5.436;2023-04-27T03:20:30;101893.31;;;11.42;87.85
48846;BME280;34665;51.886;5.436;2023-04-27T03:22:56;101896.78;;;11.51;87.52
48846;BME280;34665;51.886;5.436;2023-04-27T03:25:21;101900.72;;;11.31;88.00
48846;BME280;34665;51.886;5.436;2023-04-27T03:27:47;101904.72;;;11.36;87.90
48846;BME280;34665;51.886;5.436;2023-04-27T03:30:13;101901.50;;;11.40;87.17
48846;BME280;34665;51.886;5.436;2023-04-27T03:32:38;101901.84;;;11.37;87.68
48846;BME280;34665;51.886;5.436;2023-04-27T03:35:04;101905.53;;;11.36;87.89
48846;BME280;34665;51.886;5.436;2023-04-27T03:37:29;101904.38;;;11.39;87.32
48846;BME280;34665;51.886;5.436;2023-04-27T03:39:56;101906.91;;;11.32;87.68
48846;BME280;34665;51.886;5.436;2023-04-27T03:42:21;101904.94;;;11.17;88.22
48846;BME280;34665;51.886;5.436;2023-04-27T03:44:48;101906.41;;;11.37;87.41
48846;BME280;34665;51.886;5.436;2023-04-27T03:47:13;101910.09;;;11.27;87.75
48846;BME280;34665;51.886;5.436;2023-04-27T03:49:40;101912.16;;;11.17;89.48
48846;BME280;34665;51.886;5.436;2023-04-27T03:52:06;101901.41;;;11.25;88.53
48846;BME280;34665;51.886;5.436;2023-04-27T03:54:33;101904.69;;;11.04;89.87
48846;BME280;34665;51.886;5.436;2023-04-27T03:56:58;101906.50;;;11.03;90.92
48846;BME280;34665;51.886;5.436;2023-04-27T03:59:24;101907.34;;;11.04;91.04
48846;BME280;34665;51.886;5.436;2023-04-27T04:01:50;101902.97;;;11.11;90.92
48846;BME280;34665;51.886;5.436;2023-04-27T04:04:16;101918.22;;;11.02;92.09
48846;BME280;34665;51.886;5.436;2023-04-27T04:06:41;101913.69;;;11.11;91.30
48846;BME280;34665;51.886;5.436;2023-04-27T04:09:06;101908.16;;;11.04;91.88
48846;BME280;34665;51.886;5.436;2023-04-27T04:11:32;101910.34;;;11.09;91.63
48846;BME280;34665;51.886;5.436;2023-04-27T04:13:59;101907.38;;;10.96;93.51
48846;BME280;34665;51.886;5.436;2023-04-27T04:16:25;101921.56;;;11.04;93.69
48846;BME280;34665;51.886;5.436;2023-04-27T04:18:51;101913.25;;;10.91;95.56
48846;BME280;34665;51.886;5.436;2023-04-27T04:21:18;101918.56;;;11.08;94.83
48846;BME280;34665;51.886;5.436;2023-04-27T04:23:43;101913.88;;;11.10;94.52
48846;BME280;34665;51.886;5.436;2023-04-27T04:26:09;101917.06;;;11.05;94.70
48846;BME280;34665;51.886;5.436;2023-04-27T04:28:36;101916.22;;;10.96;96.21
48846;BME280;34665;51.886;5.436;2023-04-27T04:31:02;101917.13;;;10.80;97.74
48846;BME280;34665;51.886;5.436;2023-04-27T04:33:29;101925.94;;;10.97;97.97
48846;BME280;34665;51.886;5.436;2023-04-27T04:35:56;101925.09;;;11.05;96.79
48846;BME280;34665;51.886;5.436;2023-04-27T04:38:21;101920.53;;;11.14;95.47
48846;BME280;34665;51.886;5.436;2023-04-27T04:40:48;101920.16;;;11.25;94.25
48846;BME280;34665;51.886;5.436;2023-04-27T04:43:15;101920.50;;;11.22;94.63
48846;BME280;34665;51.886;5.436;2023-04-27T04:45:41;101930.50;;;11.28;94.16
48846;BME280;34665;51.886;5.436;2023-04-27T04:48:06;101917.81;;;11.30;93.68
48846;BME280;34665;51.886;5.436;2023-04-27T04:50:33;101931.88;;;11.24;94.24
48846;BME280;34665;51.886;5.436;2023-04-27T04:52:59;101927.84;;;11.28;93.55
48846;BME280;34665;51.886;5.436;2023-04-27T04:55:25;101932.03;;;11.31;93.48
48846;BME280;34665;51.886;5.436;2023-04-27T04:57:51;101944.91;;;11.36;93.29
48846;BME280;34665;51.886;5.436;2023-04-27T05:00:17;101940.50;;;11.43;92.52
48846;BME280;34665;51.886;5.436;2023-04-27T05:02:42;101942.69;;;11.39;92.20
48846;BME280;34665;51.886;5.436;2023-04-27T05:05:08;101946.03;;;11.41;91.94
48846;BME280;34665;51.886;5.436;2023-04-27T05:07:33;101948.03;;;11.47;91.83
48846;BME280;34665;51.886;5.436;2023-04-27T05:09:59;101945.81;;;11.51;91.40
48846;BME280;34665;51.886;5.436;2023-04-27T05:12:25;101947.19;;;11.47;91.57
48846;BME280;34665;51.886;5.436;2023-04-27T05:14:50;101947.38;;;11.45;91.32
48846;BME280;34665;51.886;5.436;2023-04-27T05:17:16;101954.19;;;11.56;90.82
48846;BME280;34665;51.886;5.436;2023-04-27T05:19:41;101950.97;;;11.61;90.53
48846;BME280;34665;51.886;5.436;2023-04-27T05:22:06;101947.78;;;11.66;90.14
48846;BME280;34665;51.886;5.436;2023-04-27T05:24:32;101956.09;;;11.71;90.08
48846;BME280;34665;51.886;5.436;2023-04-27T05:26:57;101950.59;;;11.72;90.11
48846;BME280;34665;51.886;5.436;2023-04-27T05:29:23;101946.38;;;11.78;90.15
48846;BME280;34665;51.886;5.436;2023-04-27T05:31:49;101960.06;;;11.83;88.98
48846;BME280;34665;51.886;5.436;2023-04-27T05:34:14;101958.22;;;11.84;89.36
48846;BME280;34665;51.886;5.436;2023-04-27T05:36:40;101954.66;;;11.91;88.84
48846;BME280;34665;51.886;5.436;2023-04-27T05:39:05;101958.72;;;11.87;88.57
48846;BME280;34665;51.886;5.436;2023-04-27T05:41:31;101964.22;;;11.94;88.41
48846;BME280;34665;51.886;5.436;2023-04-27T05:43:56;101954.97;;;11.97;88.39
48846;BME280;34665;51.886;5.436;2023-04-27T05:46:22;101961.75;;;11.84;87.85
48846;BME280;34665;51.886;5.436;2023-04-27T05:48:47;101957.56;;;12.13;86.01
48846;BME280;34665;51.886;5.436;2023-04-27T05:51:13;101963.34;;;12.02;85.59
48846;BME280;34665;51.886;5.436;2023-04-27T05:53:38;101958.94;;;12.09;85.63
48846;BME280;34665;51.886;5.436;2023-04-27T05:56:04;101963.53;;;12.24;85.06
48846;BME280;34665;51.886;5.436;2023-04-27T05:58:31;101953.78;;;11.99;85.75
48846;BME280;34665;51.886;5.436;2023-04-27T06:00:57;101959.44;;;12.13;86.07
48846;BME280;34665;51.886;5.436;2023-04-27T06:03:23;101950.47;;;12.21;85.58
48846;BME280;34665;51.886;5.436;2023-04-27T06:05:53;101946.19;;;12.11;86.38
48846;BME280;34665;51.886;5.436;2023-04-27T06:08:19;101950.06;;;12.09;86.47
48846;BME280;34665;51.886;5.436;2023-04-27T06:10:44;101950.38;;;12.14;86.41
48846;BME280;34665;51.886;5.436;2023-04-27T06:13:10;101948.56;;;11.98;87.21
48846;BME280;34665;51.886;5.436;2023-04-27T06:15:35;101960.06;;;11.83;87.33
48846;BME280;34665;51.886;5.436;2023-04-27T06:18:01;101956.81;;;12.28;86.02
48846;BME280;34665;51.886;5.436;2023-04-27T06:20:26;101961.38;;;12.42;84.37
48846;BME280;34665;51.886;5.436;2023-04-27T06:22:52;101955.34;;;12.40;84.53
48846;BME280;34665;51.886;5.436;2023-04-27T06:25:17;101959.16;;;12.69;83.38
48846;BME280;34665;51.886;5.436;2023-04-27T06:27:42;101965.03;;;12.50;83.39
48846;BME280;34665;51.886;5.436;2023-04-27T06:30:08;101970.88;;;12.68;83.09
48846;BME280;34665;51.886;5.436;2023-04-27T06:32:35;101966.81;;;12.34;83.62
48846;BME280;34665;51.886;5.436;2023-04-27T06:35:00;101972.06;;;12.51;82.70
48846;BME280;34665;51.886;5.436;2023-04-27T06:37:26;101963.97;;;12.89;81.16
48846;BME280;34665;51.886;5.436;2023-04-27T06:39:52;101968.81;;;13.09;80.17
48846;BME280;34665;51.886;5.436;2023-04-27T06:42:17;101971.00;;;12.90;80.04
48846;BME280;34665;51.886;5.436;2023-04-27T06:44:43;101966.59;;;13.27;79.13
48846;BME280;34665;51.886;5.436;2023-04-27T06:47:08;101963.63;;;13.07;79.39
48846;BME280;34665;51.886;5.436;2023-04-27T06:49:34;101959.81;;;13.31;78.14
48846;BME280;34665;51.886;5.436;2023-04-27T06:52:00;101958.16;;;13.30;77.92
48846;BME280;34665;51.886;5.436;2023-04-27T06:54:26;101962.63;;;13.23;77.55
48846;BME280;34665;51.886;5.436;2023-04-27T06:56:52;101966.88;;;13.17;77.49
48846;BME280;34665;51.886;5.436;2023-04-27T06:59:18;101962.78;;;13.67;77.05
48846;BME280;34665;51.886;5.436;2023-04-27T07:01:44;101965.84;;;13.48;77.63
48846;BME280;34665;51.886;5.436;2023-04-27T07:04:10;101966.88;;;13.62;77.63
48846;BME280;34665;51.886;5.436;2023-04-27T07:06:36;101956.81;;;13.71;76.57
48846;BME280;34665;51.886;5.436;2023-04-27T07:09:02;101966.81;;;14.14;74.85
48846;BME280;34665;51.886;5.436;2023-04-27T07:11:30;101965.28;;;14.27;74.47
48846;BME280;34665;51.886;5.436;2023-04-27T07:13:56;101975.38;;;14.46;73.92
48846;BME280;34665;51.886;5.436;2023-04-27T07:16:21;101973.31;;;14.20;74.41
48846;BME280;34665;51.886;5.436;2023-04-27T07:18:46;101977.03;;;14.69;73.17
48846;BME280;34665;51.886;5.436;2023-04-27T07:21:12;101974.34;;;14.47;71.13
48846;BME280;34665;51.886;5.436;2023-04-27T07:23:38;101973.00;;;14.58;69.45
48846;BME280;34665;51.886;5.436;2023-04-27T07:26:04;101980.44;;;14.56;66.80
48846;BME280;34665;51.886;5.436;2023-04-27T07:28:31;101983.13;;;14.78;66.06
48846;BME280;34665;51.886;5.436;2023-04-27T07:30:57;101973.66;;;15.17;64.45
48846;BME280;34665;51.886;5.436;2023-04-27T07:33:23;101977.78;;;15.13;64.61
48846;BME280;34665;51.886;5.436;2023-04-27T07:35:48;101978.03;;;14.90;63.73
48846;BME280;34665;51.886;5.436;2023-04-27T07:38:15;101970.00;;;15.32;63.22
48846;BME280;34665;51.886;5.436;2023-04-27T07:40:41;101983.03;;;14.93;61.92
48846;BME280;34665;51.886;5.436;2023-04-27T07:43:07;101969.72;;;15.20;60.83
48846;BME280;34665;51.886;5.436;2023-04-27T07:45:34;101972.31;;;15.35;61.30
48846;BME280;34665;51.886;5.436;2023-04-27T07:48:02;101972.41;;;14.85;63.10
48846;BME280;34665;51.886;5.436;2023-04-27T07:50:28;101975.47;;;15.94;61.96
48846;BME280;34665;51.886;5.436;2023-04-27T07:52:54;101972.25;;;15.70;61.09
48846;BME280;34665;51.886;5.436;2023-04-27T07:55:20;101975.47;;;15.94;60.51
48846;BME280;34665;51.886;5.436;2023-04-27T07:57:48;101977.94;;;15.89;60.16
48846;BME280;34665;51.886;5.436;2023-04-27T08:00:13;101987.56;;;16.39;58.03
48846;BME280;34665;51.886;5.436;2023-04-27T08:02:40;101984.19;;;16.03;56.85
48846;BME280;34665;51.886;5.436;2023-04-27T08:05:06;101994.88;;;15.76;55.55
48846;BME280;34665;51.886;5.436;2023-04-27T08:07:32;101989.50;;;15.83;56.47
48846;BME280;34665;51.886;5.436;2023-04-27T08:09:58;101985.03;;;15.97;56.43
48846;BME280;34665;51.886;5.436;2023-04-27T08:12:23;101987.78;;;16.51;56.50
48846;BME280;34665;51.886;5.436;2023-04-27T08:14:49;101993.59;;;16.41;55.41
48846;BME280;34665;51.886;5.436;2023-04-27T08:17:15;101993.00;;;16.86;54.74
48846;BME280;34665;51.886;5.436;2023-04-27T08:19:42;101994.66;;;17.00;53.83
48846;BME280;34665;51.886;5.436;2023-04-27T08:22:08;101991.75;;;16.41;54.96
48846;BME280;34665;51.886;5.436;2023-04-27T08:24:33;101993.38;;;16.89;54.41
48846;BME280;34665;51.886;5.436;2023-04-27T08:26:58;101990.03;;;17.80;53.32
48846;BME280;34665;51.886;5.436;2023-04-27T08:29:24;101984.53;;;17.48;53.45
48846;BME280;34665;51.886;5.436;2023-04-27T08:31:50;101986.72;;;18.17;53.71
48846;BME280;34665;51.886;5.436;2023-04-27T08:34:15;101991.66;;;18.27;52.70
48846;BME280;34665;51.886;5.436;2023-04-27T08:36:41;101982.34;;;17.77;52.15
48846;BME280;34665;51.886;5.436;2023-04-27T08:39:07;101975.50;;;16.95;53.33
48846;BME280;34665;51.886;5.436;2023-04-27T08:41:33;101976.13;;;16.84;52.25
48846;BME280;34665;51.886;5.436;2023-04-27T08:43:59;101971.16;;;16.94;52.85
48846;BME280;34665;51.886;5.436;2023-04-27T08:46:24;101975.53;;;16.68;53.40
48846;BME280;34665;51.886;5.436;2023-04-27T08:48:52;101963.06;;;17.08;52.92
48846;BME280;34665;51.886;5.436;2023-04-27T08:51:18;101960.88;;;17.37;52.57
48846;BME280;34665;51.886;5.436;2023-04-27T08:53:48;101966.41;;;18.33;51.72
48846;BME280;34665;51.886;5.436;2023-04-27T08:56:14;101974.72;;;19.08;51.56
48846;BME280;34665;51.886;5.436;2023-04-27T08:58:40;101979.84;;;19.34;49.46
48846;BME280;34665;51.886;5.436;2023-04-27T09:01:06;101983.91;;;19.44;49.44
48846;BME280;34665;51.886;5.436;2023-04-27T09:03:33;101984.50;;;19.46;47.76
48846;BME280;34665;51.886;5.436;2023-04-27T09:06:02;101985.56;;;19.26;47.86
48846;BME280;34665;51.886;5.436;2023-04-27T09:08:27;101974.81;;;19.87;46.92
48846;BME280;34665;51.886;5.436;2023-04-27T09:10:53;101973.22;;;19.98;45.29
48846;BME280;34665;51.886;5.436;2023-04-27T09:13:21;101971.00;;;20.07;46.18
48846;BME280;34665;51.886;5.436;2023-04-27T09:15:47;101968.97;;;20.02;45.76
48846;BME280;34665;51.886;5.436;2023-04-27T09:18:16;101972.75;;;20.56;45.42
48846;BME280;34665;51.886;5.436;2023-04-27T09:20:43;101974.16;;;20.82;44.31
48846;BME280;34665;51.886;5.436;2023-04-27T09:23:08;101973.34;;;20.70;42.98
48846;BME280;34665;51.886;5.436;2023-04-27T09:25:33;101972.28;;;21.06;43.04
48846;BME280;34665;51.886;5.436;2023-04-27T09:27:59;101976.25;;;21.16;41.25
48846;BME280;34665;51.886;5.436;2023-04-27T09:30:25;101975.13;;;20.88;41.06
48846;BME280;34665;51.886;5.436;2023-04-27T09:32:58;101966.94;;;20.76;40.72
48846;BME280;34665;51.886;5.436;2023-04-27T09:35:28;101970.75;;;20.09;39.49
48846;BME280;34665;51.886;5.436;2023-04-27T09:37:54;101975.22;;;21.05;38.89
48846;BME280;34665;51.886;5.436;2023-04-27T09:40:20;101965.66;;;21.14;38.94
48846;BME280;34665;51.886;5.436;2023-04-27T09:42:50;101964.47;;;21.51;38.28
48846;BME280;34665;51.886;5.436;2023-04-27T09:45:16;101965.97;;;22.34;38.64
48846;BME280;34665;51.886;5.436;2023-04-27T09:47:42;101971.22;;;23.14;36.63
48846;BME280;34665;51.886;5.436;2023-04-27T09:50:07;101966.75;;;22.46;36.76
48846;BME280;34665;51.886;5.436;2023-04-27T09:52:33;101973.91;;;23.09;36.74
48846;BME280;34665;51.886;5.436;2023-04-27T09:54:58;101968.44;;;23.76;35.70
48846;BME280;34665;51.886;5.436;2023-04-27T09:57:35;101967.63;;;23.09;35.36
48846;BME280;34665;51.886;5.436;2023-04-27T10:00:09;101964.56;;;23.72;35.67
48846;BME280;34665;51.886;5.436;2023-04-27T10:03:13;101964.50;;;25.02;34.49
48846;BME280;34665;51.886;5.436;2023-04-27T10:08:02;101973.28;;;26.04;33.40
48846;BME280;34665;51.886;5.436;2023-04-27T10:10:28;101971.09;;;26.58;32.82
48846;BME280;34665;51.886;5.436;2023-04-27T10:12:59;101960.41;;;26.05;32.56
48846;BME280;34665;51.886;5.436;2023-04-27T10:15:25;101965.78;;;27.03;30.95
48846;BME280;34665;51.886;5.436;2023-04-27T10:17:54;101967.94;;;28.07;30.19
48846;BME280;34665;51.886;5.436;2023-04-27T10:20:29;101975.38;;;27.06;30.09
48846;BME280;34665;51.886;5.436;2023-04-27T10:22:56;101972.13;;;26.94;29.63
48846;BME280;34665;51.886;5.436;2023-04-27T10:25:23;101974.47;;;27.82;29.74
48846;BME280;34665;51.886;5.436;2023-04-27T10:27:50;101976.22;;;26.96;29.68
48846;BME280;34665;51.886;5.436;2023-04-27T10:30:17;101967.44;;;26.94;29.37
48846;BME280;34665;51.886;5.436;2023-04-27T10:32:56;101976.41;;;27.20;29.37
48846;BME280;34665;51.886;5.436;2023-04-27T10:35:30;101973.81;;;27.50;28.70
48846;BME280;34665;51.886;5.436;2023-04-27T10:38:03;101970.56;;;25.99;29.05
48846;BME280;34665;51.886;5.436;2023-04-27T10:40:31;101963.72;;;26.12;28.73
48846;BME280;34665;51.886;5.436;2023-04-27T10:43:06;101966.97;;;26.66;29.48
48846;BME280;34665;51.886;5.436;2023-04-27T10:45:32;101963.97;;;28.24;27.69
48846;BME280;34665;51.886;5.436;2023-04-27T10:47:59;101963.66;;;29.09;27.06
48846;BME280;34665;51.886;5.436;2023-04-27T10:50:25;101970.09;;;29.81;26.29
48846;BME280;34665;51.886;5.436;2023-04-27T10:52:50;101963.78;;;30.46;26.11
48846;BME280;34665;51.886;5.436;2023-04-27T10:55:20;101966.78;;;30.78;25.95
48846;BME280;34665;51.886;5.436;2023-04-27T11:00:11;101962.31;;;30.82;25.15
48846;BME280;34665;51.886;5.436;2023-04-27T11:02:38;101966.75;;;30.03;26.12
48846;BME280;34665;51.886;5.436;2023-04-27T11:05:14;101955.34;;;29.90;25.64
48846;BME280;34665;51.886;5.436;2023-04-27T11:07:39;101953.34;;;29.19;25.82
48846;BME280;34665;51.886;5.436;2023-04-27T11:10:06;101948.25;;;29.08;25.84
48846;BME280;34665;51.886;5.436;2023-04-27T11:12:32;101952.56;;;29.90;25.31
48846;BME280;34665;51.886;5.436;2023-04-27T11:14:57;101944.19;;;30.62;25.15
48846;BME280;34665;51.886;5.436;2023-04-27T11:17:29;101943.84;;;30.36;24.97
48846;BME280;34665;51.886;5.436;2023-04-27T11:19:54;101942.78;;;31.43;24.33
48846;BME280;34665;51.886;5.436;2023-04-27T11:22:20;101937.03;;;32.63;24.21
48846;BME280;34665;51.886;5.436;2023-04-27T11:24:49;101939.50;;;33.49;23.77
48846;BME280;34665;51.886;5.436;2023-04-27T11:27:15;101929.09;;;34.28;22.78
48846;BME280;34665;51.886;5.436;2023-04-27T11:29:42;101938.81;;;34.43;22.82
48846;BME280;34665;51.886;5.436;2023-04-27T11:32:07;101932.00;;;35.22;21.67
48846;BME280;34665;51.886;5.436;2023-04-27T11:34:32;101922.06;;;35.76;20.91
48846;BME280;34665;51.886;5.436;2023-04-27T11:37:05;101918.41;;;35.63;20.46
48846;BME280;34665;51.886;5.436;2023-04-27T11:39:36;101920.78;;;35.19;20.74
48846;BME280;34665;51.886;5.436;2023-04-27T11:44:40;101916.75;;;33.90;21.53
48846;BME280;34665;51.886;5.436;2023-04-27T11:47:06;101909.31;;;33.21;22.12
48846;BME280;34665;51.886;5.436;2023-04-27T11:49:32;101913.22;;;33.28;21.84
48846;BME280;34665;51.886;5.436;2023-04-27T11:51:58;101909.09;;;33.79;22.24
48846;BME280;34665;51.886;5.436;2023-04-27T11:54:27;101905.66;;;34.77;21.26
48846;BME280;34665;51.886;5.436;2023-04-27T11:57:02;101906.94;;;35.10;20.39
48846;BME280;34665;51.886;5.436;2023-04-27T11:59:29;101899.84;;;34.91;20.79
48846;BME280;34665;51.886;5.436;2023-04-27T12:01:54;101897.91;;;35.13;20.28
48846;BME280;34665;51.886;5.436;2023-04-27T12:04:19;101898.19;;;34.69;20.08
48846;BME280;34665;51.886;5.436;2023-04-27T12:06:45;101896.69;;;34.50;19.91
48846;BME280;34665;51.886;5.436;2023-04-27T12:09:11;101896.16;;;34.09;19.94
48846;BME280;34665;51.886;5.436;2023-04-27T12:11:36;101893.56;;;34.52;19.60
48846;BME280;34665;51.886;5.436;2023-04-27T12:14:02;101912.34;;;35.06;19.72
48846;BME280;34665;51.886;5.436;2023-04-27T12:16:28;101904.06;;;34.97;19.99
48846;BME280;34665;51.886;5.436;2023-04-27T12:18:53;101892.63;;;34.69;20.35
48846;BME280;34665;51.886;5.436;2023-04-27T12:21:18;101887.97;;;34.82;20.42
48846;BME280;34665;51.886;5.436;2023-04-27T12:23:44;101890.75;;;34.22;20.91
48846;BME280;34665;51.886;5.436;2023-04-27T12:26:11;101896.69;;;35.01;19.54
48846;BME280;34665;51.886;5.436;2023-04-27T12:28:36;101894.25;;;35.88;18.74
48846;BME280;34665;51.886;5.436;2023-04-27T12:31:02;101893.00;;;35.98;19.39
48846;BME280;34665;51.886;5.436;2023-04-27T12:33:28;101892.81;;;35.70;19.22
48846;BME280;34665;51.886;5.436;2023-04-27T12:35:54;101892.47;;;36.05;19.47
48846;BME280;34665;51.886;5.436;2023-04-27T12:38:19;101887.91;;;36.00;19.34
48846;BME280;34665;51.886;5.436;2023-04-27T12:40:44;101896.00;;;36.52;18.78
48846;BME280;34665;51.886;5.436;2023-04-27T12:43:10;101885.16;;;36.75;19.05
48846;BME280;34665;51.886;5.436;2023-04-27T12:45:37;101874.00;;;37.44;18.33
48846;BME280;34665;51.886;5.436;2023-04-27T12:48:02;101874.41;;;37.02;18.25
48846;BME280;34665;51.886;5.436;2023-04-27T12:50:28;101876.88;;;37.32;18.59
48846;BME280;34665;51.886;5.436;2023-04-27T12:52:54;101878.69;;;37.40;17.72